sensor_id;sensor_type;location;lat;lon;timestamp;pressure;altitude;pressure_sealevel;temperature;humidity
11678;BME280;5895;41.950;24.372;2023-04-27T00:02:00;86250.28;;;3.59;96.06
11678;BME280;5895;41.950;24.372;2023-04-27T00:04:28;86245.13;;;3.59;96.14
11678;BME280;5895;41.950;24.372;2023-04-27T00:06:56;86253.81;;;3.58;95.91
11678;BME280;5895;41.950;24.372;2023-04-27T00:09:24;86249.47;;;3.59;96.33
11678;BME280;5895;41.950;24.372;2023-04-27T00:11:51;86249.66;;;3.57;95.99
11678;BME280;5895;41.950;24.372;2023-04-27T00:14:18;86247.88;;;3.58;95.75
11678;BME280;5895;41.950;24.372;2023-04-27T00:16:46;86250.28;;;3.59;95.86
11678;BME280;5895;41.950;24.372;2023-04-27T00:19:13;86253.81;;;3.58;95.65
11678;BME280;5895;41.950;24.372;2023-04-27T00:21:41;86248.66;;;3.58;95.73
11678;BME280;5895;41.950;24.372;2023-04-27T00:24:10;86249.66;;;3.57;95.37
11678;BME280;5895;41.950;24.372;2023-04-27T00:26:37;86248.31;;;3.55;95.68
11678;BME280;5895;41.950;24.372;2023-04-27T00:29:04;86241.59;;;3.54;96.15
11678;BME280;5895;41.950;24.372;2023-04-27T00:31:31;86257.78;;;3.54;95.85
11678;BME280;5895;41.950;24.372;2023-04-27T00:33:58;86250.09;;;3.54;96.06
11678;BME280;5895;41.950;24.372;2023-04-27T00:36:25;86249.47;;;3.52;95.91
11678;BME280;5895;41.950;24.372;2023-04-27T00:38:52;86256.59;;;3.50;95.68
11678;BME280;5895;41.950;24.372;2023-04-27T00:41:21;86253.25;;;3.50;95.99
11678;BME280;5895;41.950;24.372;2023-04-27T00:43:48;86253.06;;;3.44;95.94
11678;BME280;5895;41.950;24.372;2023-04-27T00:46:16;86261.34;;;3.40;95.70
11678;BME280;5895;41.950;24.372;2023-04-27T00:48:45;86264.91;;;3.39;96.89
11678;BME280;5895;41.950;24.372;2023-04-27T00:51:12;86261.34;;;3.40;96.11
11678;BME280;5895;41.950;24.372;2023-04-27T00:53:40;86260.34;;;3.41;96.43
11678;BME280;5895;41.950;24.372;2023-04-27T00:56:07;86265.47;;;3.41;96.09
11678;BME280;5895;41.950;24.372;2023-04-27T00:58:36;86258.78;;;3.40;95.89
11678;BME280;5895;41.950;24.372;2023-04-27T01:01:03;86263.13;;;3.39;95.84
11678;BME280;5895;41.950;24.372;2023-04-27T01:03:31;86265.47;;;3.41;95.95
11678;BME280;5895;41.950;24.372;2023-04-27T01:05:58;86266.47;;;3.40;95.97
11678;BME280;5895;41.950;24.372;2023-04-27T01:08:26;86275.16;;;3.39;95.69
11678;BME280;5895;41.950;24.372;2023-04-27T01:10:54;86272.00;;;3.37;95.58
11678;BME280;5895;41.950;24.372;2023-04-27T01:13:21;86278.31;;;3.34;95.90
11678;BME280;5895;41.950;24.372;2023-04-27T01:15:49;86272.41;;;3.34;95.74
11678;BME280;5895;41.950;24.372;2023-04-27T01:18:17;86277.53;;;3.34;95.06
11678;BME280;5895;41.950;24.372;2023-04-27T01:20:44;86285.00;;;3.35;95.61
11678;BME280;5895;41.950;24.372;2023-04-27T01:23:14;86282.66;;;3.34;95.94
11678;BME280;5895;41.950;24.372;2023-04-27T01:25:41;86277.91;;;3.31;94.89
11678;BME280;5895;41.950;24.372;2023-04-27T01:28:09;86291.72;;;3.30;94.97
11678;BME280;5895;41.950;24.372;2023-04-27T01:30:36;86284.44;;;3.33;95.33
11678;BME280;5895;41.950;24.372;2023-04-27T01:33:03;86284.63;;;3.32;95.33
11678;BME280;5895;41.950;24.372;2023-04-27T01:35:30;86289.75;;;3.32;95.06
11678;BME280;5895;41.950;24.372;2023-04-27T01:37:57;86288.16;;;3.31;95.36
11678;BME280;5895;41.950;24.372;2023-04-27T01:40:27;86286.59;;;3.30;95.07
11678;BME280;5895;41.950;24.372;2023-04-27T01:42:54;86289.16;;;3.30;95.35
11678;BME280;5895;41.950;24.372;2023-04-27T01:45:21;86287.59;;;3.29;94.97
11678;BME280;5895;41.950;24.372;2023-04-27T01:47:50;86300.00;;;3.25;95.28
11678;BME280;5895;41.950;24.372;2023-04-27T01:50:17;86296.06;;;3.23;95.23
11678;BME280;5895;41.950;24.372;2023-04-27T01:52:45;86293.31;;;3.17;94.93
11678;BME280;5895;41.950;24.372;2023-04-27T01:55:12;86303.97;;;3.14;95.19
11678;BME280;5895;41.950;24.372;2023-04-27T01:57:40;86291.75;;;3.16;96.01
11678;BME280;5895;41.950;24.372;2023-04-27T02:00:08;86306.34;;;3.16;95.50
11678;BME280;5895;41.950;24.372;2023-04-27T02:02:36;86298.25;;;3.12;95.60
11678;BME280;5895;41.950;24.372;2023-04-27T02:05:03;86298.44;;;3.11;95.10
11678;BME280;5895;41.950;24.372;2023-04-27T02:07:31;86305.56;;;3.09;96.08
11678;BME280;5895;41.950;24.372;2023-04-27T02:09:58;86309.47;;;3.05;95.36
11678;BME280;5895;41.950;24.372;2023-04-27T02:12:25;86303.56;;;3.04;96.00
11678;BME280;5895;41.950;24.372;2023-04-27T02:14:54;86308.69;;;3.04;96.09
11678;BME280;5895;41.950;24.372;2023-04-27T02:17:21;86310.66;;;3.02;96.46
11678;BME280;5895;41.950;24.372;2023-04-27T02:19:48;86313.00;;;2.97;96.14
11678;BME280;5895;41.950;24.372;2023-04-27T02:22:15;86309.66;;;2.97;96.41
11678;BME280;5895;41.950;24.372;2023-04-27T02:24:43;86311.84;;;2.93;96.94
11678;BME280;5895;41.950;24.372;2023-04-27T02:27:10;86311.22;;;2.91;97.14
11678;BME280;5895;41.950;24.372;2023-04-27T02:29:37;86306.72;;;2.86;97.40
11678;BME280;5895;41.950;24.372;2023-04-27T02:32:06;86311.84;;;2.86;97.54
11678;BME280;5895;41.950;24.372;2023-04-27T02:34:33;86311.44;;;2.83;97.67
11678;BME280;5895;41.950;24.372;2023-04-27T02:37:00;86309.88;;;2.82;97.89
11678;BME280;5895;41.950;24.372;2023-04-27T02:39:27;86303.94;;;2.81;97.72
11678;BME280;5895;41.950;24.372;2023-04-27T02:41:54;86306.09;;;2.78;97.90
11678;BME280;5895;41.950;24.372;2023-04-27T02:44:21;86310.66;;;2.76;97.97
11678;BME280;5895;41.950;24.372;2023-04-27T02:46:49;86300.00;;;2.79;98.02
11678;BME280;5895;41.950;24.372;2023-04-27T02:49:17;86301.56;;;2.80;98.17
11678;BME280;5895;41.950;24.372;2023-04-27T02:51:45;86302.56;;;2.79;97.82
11678;BME280;5895;41.950;24.372;2023-04-27T02:54:12;86309.66;;;2.77;98.29
11678;BME280;5895;41.950;24.372;2023-04-27T02:56:39;86303.91;;;2.75;98.09
11678;BME280;5895;41.950;24.372;2023-04-27T02:59:07;86316.16;;;2.73;98.15
11678;BME280;5895;41.950;24.372;2023-04-27T03:01:34;86310.25;;;2.72;97.88
11678;BME280;5895;41.950;24.372;2023-04-27T03:04:01;86314.56;;;2.72;97.82
11678;BME280;5895;41.950;24.372;2023-04-27T03:06:29;86310.63;;;2.69;97.74
11678;BME280;5895;41.950;24.372;2023-04-27T03:08:57;86303.91;;;2.68;97.91
11678;BME280;5895;41.950;24.372;2023-04-27T03:11:24;86315.72;;;2.69;97.63
11678;BME280;5895;41.950;24.372;2023-04-27T03:13:51;86311.44;;;2.70;97.53
11678;BME280;5895;41.950;24.372;2023-04-27T03:16:18;86310.63;;;2.69;97.61
11678;BME280;5895;41.950;24.372;2023-04-27T03:18:45;86312.38;;;2.69;97.31
11678;BME280;5895;41.950;24.372;2023-04-27T03:21:13;86313.16;;;2.69;96.90
11678;BME280;5895;41.950;24.372;2023-04-27T03:23:43;86312.38;;;2.69;97.19
11678;BME280;5895;41.950;24.372;2023-04-27T03:26:11;86311.81;;;2.67;97.12
11678;BME280;5895;41.950;24.372;2023-04-27T03:28:39;86307.25;;;2.69;96.70
11678;BME280;5895;41.950;24.372;2023-04-27T03:31:07;86323.63;;;2.68;96.72
11678;BME280;5895;41.950;24.372;2023-04-27T03:33:34;86317.13;;;2.72;96.66
11678;BME280;5895;41.950;24.372;2023-04-27T03:36:02;86321.28;;;2.73;96.41
11678;BME280;5895;41.950;24.372;2023-04-27T03:38:30;86321.66;;;2.70;96.55
11678;BME280;5895;41.950;24.372;2023-04-27T03:40:59;86322.63;;;2.69;96.54
11678;BME280;5895;41.950;24.372;2023-04-27T03:43:26;86330.31;;;2.69;97.00
11678;BME280;5895;41.950;24.372;2023-04-27T03:45:53;86328.75;;;2.68;96.67
11678;BME280;5895;41.950;24.372;2023-04-27T03:48:21;86334.47;;;2.70;96.12
11678;BME280;5895;41.950;24.372;2023-04-27T03:50:48;86335.44;;;2.69;96.28
11678;BME280;5895;41.950;24.372;2023-04-27T03:53:15;86347.66;;;2.67;96.28
11678;BME280;5895;41.950;24.372;2023-04-27T03:55:43;86341.94;;;2.64;95.80
11678;BME280;5895;41.950;24.372;2023-04-27T03:58:12;86342.53;;;2.67;96.09
11678;BME280;5895;41.950;24.372;2023-04-27T04:00:39;86357.91;;;2.67;96.12
11678;BME280;5895;41.950;24.372;2023-04-27T04:03:06;86353.97;;;2.64;95.70
11678;BME280;5895;41.950;24.372;2023-04-27T04:05:33;86351.56;;;2.62;95.25
11678;BME280;5895;41.950;24.372;2023-04-27T04:08:01;86357.09;;;2.59;95.38
11678;BME280;5895;41.950;24.372;2023-04-27T04:10:28;86365.38;;;2.61;95.50
11678;BME280;5895;41.950;24.372;2023-04-27T04:12:55;86361.03;;;2.62;95.08
11678;BME280;5895;41.950;24.372;2023-04-27T04:15:24;86377.19;;;2.62;95.31
11678;BME280;5895;41.950;24.372;2023-04-27T04:17:51;86373.06;;;2.61;95.27
11678;BME280;5895;41.950;24.372;2023-04-27T04:20:18;86376.59;;;2.60;94.90
11678;BME280;5895;41.950;24.372;2023-04-27T04:22:45;86376.81;;;2.65;94.98
11678;BME280;5895;41.950;24.372;2023-04-27T04:25:12;86378.38;;;2.67;94.86
11678;BME280;5895;41.950;24.372;2023-04-27T04:27:40;86386.50;;;2.70;94.90
11678;BME280;5895;41.950;24.372;2023-04-27T04:30:08;86383.13;;;2.70;94.58
11678;BME280;5895;41.950;24.372;2023-04-27T04:32:37;86378.03;;;2.70;93.72
11678;BME280;5895;41.950;24.372;2023-04-27T04:35:05;86381.38;;;2.70;94.36
11678;BME280;5895;41.950;24.372;2023-04-27T04:37:32;86379.97;;;2.68;94.13
11678;BME280;5895;41.950;24.372;2023-04-27T04:40:03;86385.28;;;2.66;94.26
11678;BME280;5895;41.950;24.372;2023-04-27T04:42:34;86382.53;;;2.68;93.76
11678;BME280;5895;41.950;24.372;2023-04-27T04:45:02;86395.72;;;2.64;94.32
11678;BME280;5895;41.950;24.372;2023-04-27T04:47:29;86393.75;;;2.67;93.76
11678;BME280;5895;41.950;24.372;2023-04-27T04:50:00;86402.03;;;2.69;94.37
11678;BME280;5895;41.950;24.372;2023-04-27T04:52:27;86398.50;;;2.70;93.70
11678;BME280;5895;41.950;24.372;2023-04-27T04:54:54;86399.09;;;2.72;93.89
11678;BME280;5895;41.950;24.372;2023-04-27T04:57:21;86400.66;;;2.73;93.55
11678;BME280;5895;41.950;24.372;2023-04-27T04:59:52;86405.78;;;2.73;93.15
11678;BME280;5895;41.950;24.372;2023-04-27T05:02:19;86407.97;;;2.76;93.50
11678;BME280;5895;41.950;24.372;2023-04-27T05:04:46;86406.38;;;2.75;93.68
11678;BME280;5895;41.950;24.372;2023-04-27T05:07:15;86406.00;;;2.78;92.92
11678;BME280;5895;41.950;24.372;2023-04-27T05:09:43;86415.88;;;2.81;93.09
11678;BME280;5895;41.950;24.372;2023-04-27T05:12:10;86412.69;;;2.79;92.57
11678;BME280;5895;41.950;24.372;2023-04-27T05:14:37;86415.88;;;2.81;92.71
11678;BME280;5895;41.950;24.372;2023-04-27T05:17:04;86421.00;;;2.81;92.35
11678;BME280;5895;41.950;24.372;2023-04-27T05:19:31;86407.38;;;2.80;91.85
11678;BME280;5895;41.950;24.372;2023-04-27T05:21:58;86412.69;;;2.79;92.32
11678;BME280;5895;41.950;24.372;2023-04-27T05:24:27;86422.94;;;2.79;91.83
11678;BME280;5895;41.950;24.372;2023-04-27T05:26:54;86417.81;;;2.79;91.79
11678;BME280;5895;41.950;24.372;2023-04-27T05:29:21;86421.00;;;2.81;91.47
11678;BME280;5895;41.950;24.372;2023-04-27T05:31:48;86416.47;;;2.83;91.67
11678;BME280;5895;41.950;24.372;2023-04-27T05:34:15;86420.81;;;2.89;91.91
11678;BME280;5895;41.950;24.372;2023-04-27T05:36:42;86423.00;;;2.92;92.05
11678;BME280;5895;41.950;24.372;2023-04-27T05:39:11;86429.09;;;2.91;91.27
11678;BME280;5895;41.950;24.372;2023-04-27T05:41:40;86445.47;;;2.97;90.71
11678;BME280;5895;41.950;24.372;2023-04-27T05:44:07;86442.72;;;2.98;91.16
11678;BME280;5895;41.950;24.372;2023-04-27T05:46:34;86443.91;;;3.02;91.07
11678;BME280;5895;41.950;24.372;2023-04-27T05:49:01;86438.78;;;3.02;90.67
11678;BME280;5895;41.950;24.372;2023-04-27T05:51:28;86434.44;;;3.03;90.34
11678;BME280;5895;41.950;24.372;2023-04-27T05:53:56;86441.97;;;3.04;90.20
11678;BME280;5895;41.950;24.372;2023-04-27T05:56:24;86442.75;;;3.11;90.79
11678;BME280;5895;41.950;24.372;2023-04-27T05:58:52;86430.53;;;3.13;90.30
11678;BME280;5895;41.950;24.372;2023-04-27T06:01:19;86440.81;;;3.20;90.50
11678;BME280;5895;41.950;24.372;2023-04-27T06:03:48;86445.94;;;3.27;90.60
11678;BME280;5895;41.950;24.372;2023-04-27T06:06:15;86451.06;;;3.33;90.08
11678;BME280;5895;41.950;24.372;2023-04-27T06:08:42;86438.25;;;3.40;90.20
11678;BME280;5895;41.950;24.372;2023-04-27T06:11:09;86440.03;;;3.46;89.85
11678;BME280;5895;41.950;24.372;2023-04-27T06:13:36;86447.16;;;3.51;89.80
11678;BME280;5895;41.950;24.372;2023-04-27T06:16:05;86446.94;;;3.59;90.00
11678;BME280;5895;41.950;24.372;2023-04-27T06:18:32;86445.19;;;3.66;89.94
11678;BME280;5895;41.950;24.372;2023-04-27T06:21:00;86455.84;;;3.69;89.38
11678;BME280;5895;41.950;24.372;2023-04-27T06:23:27;86458.22;;;3.78;88.95
11678;BME280;5895;41.950;24.372;2023-04-27T06:25:54;86454.88;;;3.84;89.18
11678;BME280;5895;41.950;24.372;2023-04-27T06:28:23;86457.44;;;3.84;88.29
11678;BME280;5895;41.950;24.372;2023-04-27T06:30:50;86460.59;;;3.86;88.34
11678;BME280;5895;41.950;24.372;2023-04-27T06:33:19;86454.88;;;3.84;87.94
11678;BME280;5895;41.950;24.372;2023-04-27T06:35:46;86465.53;;;3.81;88.12
11678;BME280;5895;41.950;24.372;2023-04-27T06:38:13;86461.00;;;3.83;88.27
11678;BME280;5895;41.950;24.372;2023-04-27T06:40:41;86457.03;;;3.80;88.00
11678;BME280;5895;41.950;24.372;2023-04-27T06:43:09;86461.16;;;3.81;88.12
11678;BME280;5895;41.950;24.372;2023-04-27T06:45:36;86453.69;;;3.80;87.40
11678;BME280;5895;41.950;24.372;2023-04-27T06:48:04;86465.53;;;3.81;88.11
11678;BME280;5895;41.950;24.372;2023-04-27T06:50:32;86460.38;;;3.81;87.31
11678;BME280;5895;41.950;24.372;2023-04-27T06:52:59;86467.69;;;3.84;88.08
11678;BME280;5895;41.950;24.372;2023-04-27T06:55:27;86463.34;;;3.84;87.51
11678;BME280;5895;41.950;24.372;2023-04-27T06:57:54;86464.16;;;3.85;87.02
11678;BME280;5895;41.950;24.372;2023-04-27T07:00:21;86458.22;;;3.91;87.91
11678;BME280;5895;41.950;24.372;2023-04-27T07:02:48;86458.63;;;4.01;87.92
11678;BME280;5895;41.950;24.372;2023-04-27T07:05:16;86467.09;;;4.08;87.93
11678;BME280;5895;41.950;24.372;2023-04-27T07:07:44;86465.31;;;4.09;87.83
11678;BME280;5895;41.950;24.372;2023-04-27T07:10:11;86465.34;;;4.15;87.56
11678;BME280;5895;41.950;24.372;2023-04-27T07:12:39;86465.50;;;4.20;87.30
11678;BME280;5895;41.950;24.372;2023-04-27T07:15:07;86474.78;;;4.28;86.77
11678;BME280;5895;41.950;24.372;2023-04-27T07:17:34;86470.22;;;4.37;86.78
11678;BME280;5895;41.950;24.372;2023-04-27T07:20:02;86474.38;;;4.44;86.66
11678;BME280;5895;41.950;24.372;2023-04-27T07:22:30;86471.22;;;4.49;86.15
11678;BME280;5895;41.950;24.372;2023-04-27T07:24:59;86465.25;;;4.48;85.93
11678;BME280;5895;41.950;24.372;2023-04-27T07:27:26;86473.94;;;4.67;85.43
11678;BME280;5895;41.950;24.372;2023-04-27T07:29:54;86476.25;;;4.89;85.30
11678;BME280;5895;41.950;24.372;2023-04-27T07:32:21;86477.50;;;5.18;84.50
11678;BME280;5895;41.950;24.372;2023-04-27T07:34:48;86469.66;;;5.44;83.89
11678;BME280;5895;41.950;24.372;2023-04-27T07:37:16;86482.34;;;5.77;83.31
11678;BME280;5895;41.950;24.372;2023-04-27T07:39:44;86484.03;;;5.97;82.73
11678;BME280;5895;41.950;24.372;2023-04-27T07:42:12;86484.38;;;6.07;80.96
11678;BME280;5895;41.950;24.372;2023-04-27T07:44:40;86484.66;;;6.17;81.64
11678;BME280;5895;41.950;24.372;2023-04-27T07:47:08;86483.31;;;6.40;80.98
11678;BME280;5895;41.950;24.372;2023-04-27T07:49:35;86492.69;;;6.77;81.60
11678;BME280;5895;41.950;24.372;2023-04-27T07:52:03;86482.75;;;6.99;79.63
11678;BME280;5895;41.950;24.372;2023-04-27T07:54:30;86483.69;;;7.23;79.29
11678;BME280;5895;41.950;24.372;2023-04-27T07:56:57;86487.75;;;7.49;79.33
11678;BME280;5895;41.950;24.372;2023-04-27T07:59:27;86489.00;;;7.77;78.51
11678;BME280;5895;41.950;24.372;2023-04-27T08:01:54;86493.19;;;7.89;78.04
11678;BME280;5895;41.950;24.372;2023-04-27T08:04:21;86481.47;;;8.05;78.14
11678;BME280;5895;41.950;24.372;2023-04-27T08:06:49;86491.53;;;7.95;75.73
11678;BME280;5895;41.950;24.372;2023-04-27T08:09:16;86485.84;;;8.05;77.32
11678;BME280;5895;41.950;24.372;2023-04-27T08:11:43;86483.91;;;8.00;76.09
11678;BME280;5895;41.950;24.372;2023-04-27T08:14:10;86490.31;;;7.98;76.99
11678;BME280;5895;41.950;24.372;2023-04-27T08:16:41;86488.44;;;8.05;78.25
11678;BME280;5895;41.950;24.372;2023-04-27T08:19:08;86487.88;;;8.03;76.50
11678;BME280;5895;41.950;24.372;2023-04-27T08:21:36;86483.13;;;8.00;77.73
11678;BME280;5895;41.950;24.372;2023-04-27T08:24:05;86482.34;;;7.99;77.58
11678;BME280;5895;41.950;24.372;2023-04-27T08:26:32;86480.78;;;7.98;77.65
11678;BME280;5895;41.950;24.372;2023-04-27T08:29:00;86474.63;;;8.11;77.23
11678;BME280;5895;41.950;24.372;2023-04-27T08:31:27;86481.19;;;8.25;77.80
11678;BME280;5895;41.950;24.372;2023-04-27T08:33:56;86479.34;;;8.44;76.86
11678;BME280;5895;41.950;24.372;2023-04-27T08:36:23;86486.22;;;8.62;76.85
11678;BME280;5895;41.950;24.372;2023-04-27T08:38:52;86479.94;;;8.81;76.77
11678;BME280;5895;41.950;24.372;2023-04-27T08:41:20;86472.50;;;8.96;75.82
11678;BME280;5895;41.950;24.372;2023-04-27T08:43:48;86476.34;;;9.06;76.03
11678;BME280;5895;41.950;24.372;2023-04-27T08:46:17;86474.41;;;9.13;74.52
11678;BME280;5895;41.950;24.372;2023-04-27T08:48:45;86479.72;;;8.94;74.93
11678;BME280;5895;41.950;24.372;2023-04-27T08:51:15;86466.41;;;9.02;74.66
11678;BME280;5895;41.950;24.372;2023-04-27T08:53:48;86472.81;;;9.23;73.96
11678;BME280;5895;41.950;24.372;2023-04-27T08:56:15;86489.25;;;9.17;75.24
11678;BME280;5895;41.950;24.372;2023-04-27T08:58:42;86474.06;;;9.21;74.43
11678;BME280;5895;41.950;24.372;2023-04-27T09:01:10;86483.16;;;9.35;75.51
11678;BME280;5895;41.950;24.372;2023-04-27T09:03:37;86477.28;;;9.51;74.52
11678;BME280;5895;41.950;24.372;2023-04-27T09:06:05;86476.25;;;9.52;74.92
11678;BME280;5895;41.950;24.372;2023-04-27T09:08:47;86481.84;;;9.73;69.26
11678;BME280;5895;41.950;24.372;2023-04-27T09:11:15;86478.72;;;9.71;73.50
11678;BME280;5895;41.950;24.372;2023-04-27T09:13:54;86484.13;;;9.58;74.69
11678;BME280;5895;41.950;24.372;2023-04-27T09:16:23;86470.06;;;9.42;74.72
11678;BME280;5895;41.950;24.372;2023-04-27T09:18:51;86485.38;;;9.55;74.91
11678;BME280;5895;41.950;24.372;2023-04-27T09:21:22;86486.31;;;9.49;73.65
11678;BME280;5895;41.950;24.372;2023-04-27T09:23:51;86493.94;;;9.56;74.58
11678;BME280;5895;41.950;24.372;2023-04-27T09:26:19;86485.19;;;9.45;74.74
11678;BME280;5895;41.950;24.372;2023-04-27T09:28:48;86489.34;;;9.34;74.80
11678;BME280;5895;41.950;24.372;2023-04-27T09:31:15;86489.00;;;9.31;74.95
11678;BME280;5895;41.950;24.372;2023-04-27T09:33:43;86492.75;;;9.23;74.96
11678;BME280;5895;41.950;24.372;2023-04-27T09:36:12;86480.34;;;9.25;73.77
11678;BME280;5895;41.950;24.372;2023-04-27T09:38:40;86483.97;;;9.24;74.17
11678;BME280;5895;41.950;24.372;2023-04-27T09:41:09;86478.22;;;9.34;74.06
11678;BME280;5895;41.950;24.372;2023-04-27T09:43:37;86488.00;;;9.43;74.44
11678;BME280;5895;41.950;24.372;2023-04-27T09:46:05;86478.22;;;9.74;72.54
11678;BME280;5895;41.950;24.372;2023-04-27T09:48:33;86478.47;;;10.01;71.76
11678;BME280;5895;41.950;24.372;2023-04-27T09:51:00;86471.16;;;10.26;72.14
11678;BME280;5895;41.950;24.372;2023-04-27T09:53:31;86481.84;;;10.58;72.92
11678;BME280;5895;41.950;24.372;2023-04-27T09:56:12;86479.41;;;10.69;66.19
11678;BME280;5895;41.950;24.372;2023-04-27T09:59:01;86484.75;;;10.79;65.24
11678;BME280;5895;41.950;24.372;2023-04-27T10:01:37;86476.91;;;10.74;68.04
11678;BME280;5895;41.950;24.372;2023-04-27T10:04:15;86472.81;;;10.78;65.48
11678;BME280;5895;41.950;24.372;2023-04-27T10:07:00;86469.03;;;10.69;60.98
11678;BME280;5895;41.950;24.372;2023-04-27T10:09:35;86475.78;;;10.86;67.18
11678;BME280;5895;41.950;24.372;2023-04-27T10:12:16;86482.75;;;11.20;64.45
11678;BME280;5895;41.950;24.372;2023-04-27T10:14:51;86480.38;;;11.35;64.49
11678;BME280;5895;41.950;24.372;2023-04-27T10:17:23;86480.59;;;11.33;66.23
11678;BME280;5895;41.950;24.372;2023-04-27T10:19:53;86479.88;;;10.99;69.03
11678;BME280;5895;41.950;24.372;2023-04-27T10:22:20;86482.47;;;10.99;70.34
11678;BME280;5895;41.950;24.372;2023-04-27T10:24:49;86483.31;;;10.88;70.89
11678;BME280;5895;41.950;24.372;2023-04-27T10:27:18;86486.16;;;10.86;70.07
11678;BME280;5895;41.950;24.372;2023-04-27T10:29:48;86488.69;;;10.98;69.67
11678;BME280;5895;41.950;24.372;2023-04-27T10:32:20;86486.72;;;10.89;67.71
11678;BME280;5895;41.950;24.372;2023-04-27T10:34:48;86492.63;;;10.67;69.39
11678;BME280;5895;41.950;24.372;2023-04-27T10:37:17;86499.59;;;10.50;70.39
11678;BME280;5895;41.950;24.372;2023-04-27T10:39:49;86491.50;;;10.46;70.08
11678;BME280;5895;41.950;24.372;2023-04-27T10:42:28;86491.84;;;10.67;64.12
11678;BME280;5895;41.950;24.372;2023-04-27T10:44:56;86488.44;;;10.83;69.47
11678;BME280;5895;41.950;24.372;2023-04-27T10:47:24;86485.38;;;11.03;68.26
11678;BME280;5895;41.950;24.372;2023-04-27T10:50:03;86498.81;;;11.00;67.74
11678;BME280;5895;41.950;24.372;2023-04-27T10:52:31;86499.56;;;10.95;68.98
11678;BME280;5895;41.950;24.372;2023-04-27T10:55:04;86507.69;;;11.21;65.31
11678;BME280;5895;41.950;24.372;2023-04-27T10:57:46;86495.47;;;11.77;61.40
11678;BME280;5895;41.950;24.372;2023-04-27T11:00:15;86502.06;;;12.01;67.10
11678;BME280;5895;41.950;24.372;2023-04-27T11:02:43;86500.53;;;12.05;67.31
11678;BME280;5895;41.950;24.372;2023-04-27T11:05:16;86491.81;;;12.16;61.34
11678;BME280;5895;41.950;24.372;2023-04-27T11:07:44;86491.09;;;12.48;66.86
11678;BME280;5895;41.950;24.372;2023-04-27T11:10:14;86486.69;;;12.76;63.94
11678;BME280;5895;41.950;24.372;2023-04-27T11:12:42;86484.44;;;12.30;66.34
11678;BME280;5895;41.950;24.372;2023-04-27T11:15:11;86504.94;;;11.83;63.81
11678;BME280;5895;41.950;24.372;2023-04-27T11:17:39;86500.13;;;11.75;67.46
11678;BME280;5895;41.950;24.372;2023-04-27T11:20:07;86498.84;;;11.94;66.09
11678;BME280;5895;41.950;24.372;2023-04-27T11:22:43;86498.56;;;11.74;57.59
11678;BME280;5895;41.950;24.372;2023-04-27T11:25:11;86494.28;;;11.62;66.14
11678;BME280;5895;41.950;24.372;2023-04-27T11:27:39;86498.38;;;11.58;66.96
11678;BME280;5895;41.950;24.372;2023-04-27T11:30:19;86503.44;;;11.31;56.65
11678;BME280;5895;41.950;24.372;2023-04-27T11:32:47;86511.13;;;11.43;67.22
11678;BME280;5895;41.950;24.372;2023-04-27T11:35:14;86507.16;;;11.74;66.74
11678;BME280;5895;41.950;24.372;2023-04-27T11:37:42;86500.34;;;11.51;64.90
11678;BME280;5895;41.950;24.372;2023-04-27T11:40:12;86498.75;;;11.50;62.92
11678;BME280;5895;41.950;24.372;2023-04-27T11:42:40;86515.97;;;11.90;65.11
11678;BME280;5895;41.950;24.372;2023-04-27T11:45:11;86500.31;;;12.34;65.63
11678;BME280;5895;41.950;24.372;2023-04-27T11:47:45;86501.72;;;12.68;57.93
11678;BME280;5895;41.950;24.372;2023-04-27T11:50:13;86509.00;;;12.98;64.25
11678;BME280;5895;41.950;24.372;2023-04-27T11:52:40;86502.25;;;13.30;64.33
11678;BME280;5895;41.950;24.372;2023-04-27T11:55:08;86496.22;;;13.24;62.97
11678;BME280;5895;41.950;24.372;2023-04-27T11:57:41;86491.91;;;13.40;63.73
11678;BME280;5895;41.950;24.372;2023-04-27T12:00:09;86499.19;;;13.38;62.99
11678;BME280;5895;41.950;24.372;2023-04-27T12:02:40;86510.72;;;13.15;62.22
11678;BME280;5895;41.950;24.372;2023-04-27T12:05:08;86504.38;;;13.06;64.95
11678;BME280;5895;41.950;24.372;2023-04-27T12:07:36;86519.06;;;13.17;65.01
11678;BME280;5895;41.950;24.372;2023-04-27T12:10:04;86507.16;;;13.21;64.16
11678;BME280;5895;41.950;24.372;2023-04-27T12:12:32;86519.19;;;13.00;64.34
11678;BME280;5895;41.950;24.372;2023-04-27T12:14:59;86511.16;;;12.75;64.70
11678;BME280;5895;41.950;24.372;2023-04-27T12:17:27;86516.59;;;12.46;64.81
11678;BME280;5895;41.950;24.372;2023-04-27T12:19:55;86520.06;;;12.30;64.64
11678;BME280;5895;41.950;24.372;2023-04-27T12:22:22;86510.13;;;12.05;64.75
11678;BME280;5895;41.950;24.372;2023-04-27T12:24:50;86509.50;;;11.76;64.83
11678;BME280;5895;41.950;24.372;2023-04-27T12:27:17;86505.69;;;11.45;64.39
11678;BME280;5895;41.950;24.372;2023-04-27T12:29:44;86511.25;;;11.15;66.13
11678;BME280;5895;41.950;24.372;2023-04-27T12:32:11;86512.38;;;11.02;66.78
11678;BME280;5895;41.950;24.372;2023-04-27T12:34:38;86521.19;;;10.84;66.52
11678;BME280;5895;41.950;24.372;2023-04-27T12:37:08;86518.41;;;10.74;65.85
11678;BME280;5895;41.950;24.372;2023-04-27T12:39:35;86517.78;;;10.67;67.05
11678;BME280;5895;41.950;24.372;2023-04-27T12:42:03;86511.72;;;10.61;66.87
11678;BME280;5895;41.950;24.372;2023-04-27T12:44:30;86508.94;;;10.51;65.66
11678;BME280;5895;41.950;24.372;2023-04-27T12:46:57;86508.81;;;10.29;65.88
11678;BME280;5895;41.950;24.372;2023-04-27T12:49:24;86510.31;;;10.13;66.09
11678;BME280;5895;41.950;24.372;2023-04-27T12:51:51;86518.25;;;10.06;66.38
11678;BME280;5895;41.950;24.372;2023-04-27T12:54:20;86516.00;;;9.98;65.47
11678;BME280;5895;41.950;24.372;2023-04-27T12:56:47;86515.81;;;9.88;66.29
11678;BME280;5895;41.950;24.372;2023-04-27T12:59:15;86522.00;;;9.87;66.00
11678;BME280;5895;41.950;24.372;2023-04-27T13:01:42;86524.53;;;9.82;65.92
11678;BME280;5895;41.950;24.372;2023-04-27T13:04:17;86514.72;;;9.72;58.74
11678;BME280;5895;41.950;24.372;2023-04-27T13:06:44;86522.16;;;9.69;66.04
11678;BME280;5895;41.950;24.372;2023-04-27T13:09:11;86513.84;;;9.67;66.33
11678;BME280;5895;41.950;24.372;2023-04-27T13:11:40;86525.91;;;9.61;64.71
11678;BME280;5895;41.950;24.372;2023-04-27T13:14:07;86525.00;;;9.56;65.58